Flight Track Log - Related Links

Times and Time Zones

All times are in EDT time to prevent confusion due to time zone crossing. See the N650W flight status page for this flight to view local times or setup timezone preferences in your user account.

Time Position Orientation Groundspeed Altitude Reporting Facility
EDT Latitude Longitude Course Direction KTS MPH feet Rate Location/Type
Sun 10:48:15 AM 38.1417 -85.7233 206° Southwest 195 224 1,600  Level FAA TRACON SMA TRACON (SMA)
Sun 10:48:55 AM 38.1008 -85.7486 210° Southwest 245 282 2,900 2,625 Climbing FAA TRACON SMA TRACON (SMA)
Sun 10:49:35 AM 38.0578 -85.7797 235° Southwest 259 298 5,100 2,810 Climbing FAA TRACON SMA TRACON (SMA)
Sun 10:50:14 AM 38.0319 -85.8269 245° Southwest 267 307 6,600 2,430 Climbing FAA TRACON SMA TRACON (SMA)
Sun 10:50:54 AM 38.0094 -85.8892 249° West 285 328 8,300 2,707 Climbing FAA TRACON SMA TRACON (SMA)
Sun 10:51:36 AM 37.9894 -85.9558 248° West 291 335 10,300 2,593 Climbing FAA TRACON SMA TRACON (SMA)
Sun 10:52:15 AM 37.9714 -86.0136 225° Southwest 289 333 11,800 1,367 Climbing FAA TRACON SMA TRACON (SMA)
Sun 10:52:55 AM 37.9283 -86.0681 204° Southwest 331 381 12,100 1,333 Climbing FAA TRACON SMA TRACON (SMA)
Sun 10:53:36 AM 37.8678 -86.1017 197° South 347 399 13,600 2,400 Climbing FAA TRACON SMA TRACON (SMA)
Sun 10:54:15 AM 37.8125 -86.1228 194° South 338 389 15,300 2,430 Climbing FAA TRACON SMA TRACON (SMA)
Sun 10:54:55 AM 37.7500 -86.1431 218° Southwest 333 383 16,800 2,175 Climbing FAA TRACON SMA TRACON (SMA)
Sun 10:55:35 AM 37.6989 -86.1933 238° Southwest 345 397 18,200 1,899 Climbing FAA TRACON SMA TRACON (SMA)
Sun 10:56:14 AM 37.6675 -86.2572 242° Southwest 349 402 19,300 1,800 Climbing FAA TRACON SMA TRACON (SMA)
Sun 10:56:55 AM 37.6361 -86.3331 241° Southwest 352 405 20,600 1,857 Climbing FAA TRACON SMA TRACON (SMA)
Sun 10:57:38 AM 37.6028 -86.4081 239° Southwest 354 407 21,900 1,725 Climbing FAA TRACON SMA TRACON (SMA)
Sun 10:58:15 AM 37.5714 -86.4739 240° Southwest 356 410 22,900 1,579 Climbing FAA TRACON SMA TRACON (SMA)
Sun 10:58:54 AM 37.5367 -86.5508 239° Southwest 364 419 23,900 1,519 Climbing FAA TRACON SMA TRACON (SMA)
Sun 10:59:34 AM 37.4994 -86.6278 240° Southwest 370 426 24,900 1,394 Climbing FAA TRACON SMA TRACON (SMA)
Sun 11:00:33 AM 37.4517 -86.7308 240° Southwest 377 434 26,200 1,361 Climbing Memphis Center
Sun 11:01:33 AM 37.3969 -86.8483 239° Southwest 377 434 27,600 1,400 Climbing Memphis Center
Sun 11:02:33 AM 37.3397 -86.9683 239° Southwest 392 451 29,000 1,350 Climbing Memphis Center
Sun 11:03:33 AM 37.2844 -87.0853 238° Southwest 397 457 30,300 1,250 Climbing Memphis Center
Sun 11:04:33 AM 37.2253 -87.2050 240° Southwest 403 464 31,500 1,000 Climbing Memphis Center
Sun 11:05:33 AM 37.1758 -87.3111 240° Southwest 403 464 32,300 750 Climbing Memphis Center
Sun 11:06:33 AM 37.1183 -87.4381 238° Southwest 410 472 33,000 650 Climbing Memphis Center
Sun 11:07:33 AM 37.0567 -87.5600 239° Southwest 415 478 33,600 500 Climbing Memphis Center
Sun 11:08:33 AM 36.9947 -87.6894 240° Southwest 426 490 34,000 200 Climbing Memphis Center
Sun 11:09:33 AM 36.9350 -87.8211 238° Southwest 435 501 34,000  Level Memphis Center
Sun 11:10:33 AM 36.8689 -87.9556 237° Southwest 447 514 34,000  Level Memphis Center
Sun 11:11:33 AM 36.8006 -88.0872 227° Southwest 453 521 34,000  Level Memphis Center
Sun 11:12:33 AM 36.7069 -88.2139 227° Southwest 458 527 34,000  Level Memphis Center
Sun 11:13:33 AM 36.6194 -88.3328 227° Southwest 463 533 34,000  Level Memphis Center
Sun 11:14:33 AM 36.5294 -88.4511 227° Southwest 468 539 34,000  Level Memphis Center
Sun 11:15:33 AM 36.4436 -88.5667 227° Southwest 468 539 34,000  Level Memphis Center
Sun 11:16:33 AM 36.3558 -88.6844 226° Southwest 468 539 34,000  Level Memphis Center
Sun 11:17:33 AM 36.2839 -88.7761 226° Southwest 468 539 34,000  Level Memphis Center
Sun 11:18:33 AM 36.1875 -88.9014 227° Southwest 463 533 34,000  Level Memphis Center
Sun 11:19:33 AM 36.1014 -89.0161 227° Southwest 463 533 34,000  Level Memphis Center
Sun 11:20:33 AM 36.0150 -89.1303 227° Southwest 463 533 34,000  Level Memphis Center
Sun 11:21:33 AM 35.9283 -89.2444 226° Southwest 458 527 34,000  Level Memphis Center
Sun 11:22:33 AM 35.8417 -89.3558 223° Southwest 458 527 34,000  Level Memphis Center
Sun 11:23:33 AM 35.7486 -89.4617 216° Southwest 458 527 34,000  Level Memphis Center
Sun 11:24:33 AM 35.6431 -89.5575 216° Southwest 446 513 34,000  Level Memphis Center
Sun 11:25:33 AM 35.5433 -89.6478 217° Southwest 446 513 34,000  Level Memphis Center
Sun 11:26:33 AM 35.4417 -89.7403 217° Southwest 456 525 34,000  Level Memphis Center
Sun 11:27:33 AM 35.3400 -89.8328 216° Southwest 456 525 34,000  Level Memphis Center
Sun 11:30:33 AM 35.0447 -90.0958 216° Southwest 456 525 34,000  Level Memphis Center
Sun 11:31:33 AM 34.9447 -90.1847 216° Southwest 456 525 34,000  Level Memphis Center
Sun 11:32:33 AM 34.8425 -90.2736 215° Southwest 456 525 34,000  Level Memphis Center
Sun 11:33:33 AM 34.7403 -90.3597 216° Southwest 456 525 34,000  Level Memphis Center
Sun 11:34:33 AM 34.6400 -90.4481 216° Southwest 456 525 34,000 -350 Level Memphis Center
Sun 11:35:33 AM 34.5400 -90.5361 215° Southwest 451 519 33,300 -950 Descending Memphis Center
Sun 11:36:33 AM 34.4436 -90.6167 215° Southwest 440 506 32,100 -1,250 Descending Memphis Center
Sun 11:37:33 AM 34.3497 -90.6967 214° Southwest 426 490 30,800 -1,050 Descending Memphis Center
Sun 11:38:33 AM 34.2492 -90.7792 217° Southwest 433 498 30,000 -400 Descending Memphis Center
Sun 11:39:33 AM 34.1444 -90.8742 215° Southwest 433 498 30,000  Level Memphis Center
Sun 11:40:33 AM 34.0439 -90.9589 215° Southwest 433 498 30,000  Level Memphis Center
Sun 11:41:33 AM 33.9456 -91.0433 215° Southwest 438 504 30,000  Level Memphis Center
Sun 11:42:33 AM 33.8447 -91.1275 216° Southwest 444 511 30,000  Level Memphis Center
Sun 11:43:33 AM 33.7567 -91.2042 215° Southwest 444 511 30,000  Level Memphis Center
Sun 11:44:33 AM 33.6539 -91.2906 215° Southwest 444 511 30,000 -400 Level Memphis Center
Sun 11:45:33 AM 33.5528 -91.3767 216° Southwest 444 511 29,200 -1,176 Descending Memphis Center
Sun 11:47:57 AM 33.3078 -91.5878 214° Southwest 433 498 26,000 -941 Descending Fort Worth Center
Sun 11:48:57 AM 33.2072 -91.6689 214° Southwest 433 498 26,000  Level Fort Worth Center
Sun 11:49:57 AM 33.1067 -91.7497 216° Southwest 438 504 26,000  Level Fort Worth Center
Sun 11:50:57 AM 33.0142 -91.8297 215° Southwest 433 498 26,000  Level Fort Worth Center
Sun 11:51:58 AM 32.9156 -91.9128 215° Southwest 433 498 26,000  Level Fort Worth Center
Sun 11:52:58 AM 32.8189 -91.9928 213° Southwest 433 498 26,000  Level Fort Worth Center
Sun 11:53:57 AM 32.7158 -92.0731 216° Southwest 439 505 26,000  Level Fort Worth Center
Sun 11:55:51 AM 32.5314 -92.2319 214° Southwest 465 535 26,000  Level Houston Center
Sun 11:56:51 AM 32.4331 -92.3100 215° Southwest 453 521 26,000  Level Houston Center
Sun 11:57:51 AM 32.3347 -92.3928 213° Southwest 448 516 26,000  Level Houston Center
Sun 11:58:51 AM 32.2361 -92.4681 215° Southwest 437 503 26,000  Level Houston Center
Sun 11:59:51 AM 32.1378 -92.5481 215° Southwest 437 503 26,000  Level Houston Center
Sun 12:00:51 PM 32.0411 -92.6281 222° Southwest 437 503 26,000 -267 Level Houston Center
Sun 12:02:51 PM 31.8689 -92.8094 229° Southwest 424 488 25,200 -667 Descending Houston Center
Sun 12:03:51 PM 31.7928 -92.9111 227° Southwest 418 481 24,000 -600 Descending Houston Center
Sun 12:04:51 PM 31.7147 -93.0103 228° Southwest 418 481 24,000  Level Houston Center
Sun 12:05:51 PM 31.6386 -93.1092 226° Southwest 412 474 24,000  Level Houston Center
Sun 12:06:51 PM 31.5603 -93.2053 227° Southwest 412 474 24,000  Level Houston Center
Sun 12:07:51 PM 31.4883 -93.2967 227° Southwest 412 474 24,000  Level Houston Center
Sun 12:08:51 PM 31.4119 -93.3928 227° Southwest 412 474 24,000  Level Houston Center
Sun 12:09:51 PM 31.3336 -93.4911 227° Southwest 412 474 24,000  Level Houston Center
Sun 12:10:51 PM 31.2508 -93.5964 227° Southwest 412 474 24,000  Level Houston Center
Sun 12:11:51 PM 31.1719 -93.6967 227° Southwest 412 474 24,000 -49 Level Houston Center
Sun 12:12:53 PM 31.0975 -93.7897 227° Southwest 412 474 23,900  Descending Houston Center
Sun 12:14:03 PM 31.0208 -93.8850 226° Southwest 412 474 24,000 -415 Climbing Houston Center
Sun 12:15:03 PM 30.9272 -93.9992 226° Southwest 412 474 23,000 -1,050 Descending Houston Center
Sun 12:16:03 PM 30.8589 -94.0822 225° Southwest 412 474 21,900 -1,100 Descending Houston Center
Sun 12:17:03 PM 30.7800 -94.1744 227° Southwest 412 474 20,800 -1,150 Descending Houston Center
Sun 12:18:03 PM 30.7031 -94.2692 226° Southwest 407 468 19,600 -1,150 Descending Houston Center
Sun 12:19:03 PM 30.6283 -94.3589 227° Southwest 402 463 18,500 -1,100 Descending Houston Center
Sun 12:20:03 PM 30.5556 -94.4486 225° Southwest 396 456 17,400 -1,100 Descending Houston Center
Sun 12:21:03 PM 30.4764 -94.5406 237° Southwest 384 442 16,300 -1,200 Descending Houston Center
Sun 12:22:03 PM 30.4200 -94.6400 234° Southwest 384 442 15,000 -1,300 Descending Houston Center
Sun 12:23:03 PM 30.3617 -94.7344 233° Southwest 374 430 13,700 -1,300 Descending Houston Center
Sun 12:24:03 PM 30.3075 -94.8169 232° Southwest 351 404 12,400 -1,300 Descending Houston Center
Sun 12:25:03 PM 30.2533 -94.8972 233° Southwest 340 391 11,100 -1,200 Descending Houston Center
Sun 12:26:03 PM 30.1992 -94.9794 233° Southwest 335 386 10,000 -550 Descending Houston Center
Sun 12:27:03 PM 30.1450 -95.0619 206° Southwest 330 380 10,000  Level Houston Center
Sun 12:28:03 PM 30.0689 -95.1050 200° South 313 360 10,000  Level Houston Center
Sun 12:29:03 PM 29.9886 -95.1381 200° South 313 360 10,000  Level Houston Center
Sun 12:30:03 PM 29.9147 -95.1692 201° Southwest 313 360 10,000 -700 Level Houston Center
Sun 12:31:03 PM 29.8450 -95.2003 200° South 300 345 8,600 -1,200 Descending Houston Center
Sun 12:32:03 PM 29.7756 -95.2292 200° South 286 329 7,600 -1,050 Descending Houston Center
Sun 12:33:03 PM 29.7036 -95.2600 218° Southwest 276 318 6,500 -900 Descending Houston Center
Sun 12:34:03 PM 29.6481 -95.3108 277° West 270 311 5,800 -1,329 Descending Houston Center
Sun 12:35:32 PM 29.6614 -95.4308 329° Northwest 263 303 3,200 -1,152 Descending Houston Center
Sun 12:36:34 PM 29.7147 -95.4683 75° East 235 270 2,900 -585 Descending Houston Center
Sun 12:37:35 PM 29.7311 -95.3997 127° Southeast 222 255 2,000 -590 Descending Houston Center
Sun 12:38:36 PM 29.6992 -95.3508 131° Southeast 161 185 1,700 -590 Descending Houston Center
Sun 12:39:37 PM 29.6750 -95.3189 131° Southeast 131 151 800 -885 Descending Houston Center

Login

Don't have an account? Register now (free) for customized features, flight alerts, and more!